AMU826 VMMC-RKSI
Flight info
| Callsign | AMU826 |
|---|---|
| Flight time | 3h 3m |
| Altitude | 35000 |
| Route | CONGA V631 ENVAR M750 ANLOT B1 APU A1 DRAKE Q11 WP900 L4 LIPLO Y741 ATOTI Y722 OLMEN OLMEN3C |
| Aircraft | A321/M-SDE3FGHIRWY/LB1 |
Departure
| Time | 2026-04-21 10:59 |
|---|---|
| Airport | Macau International Airport (VMMC) |
Arrival
| Time | 2026-04-21 14:02 |
|---|---|
| Airport | Incheon International Airport (RKSI) |
| Time | Latitude | Longitude | Altitude | Speed | Heading |
|---|---|---|---|---|---|
| 2026-04-21 10:41 | 22.15857 | 113.57623 | 29 ft | 0 kts | 285° |
| 2026-04-21 10:45 | 22.15857 | 113.57624 | 29 ft | 2 kts | 285° |
| 2026-04-21 10:45 | 22.15849 | 113.57650 | 29 ft | 4 kts | 295° |
| 2026-04-21 10:45 | 22.15834 | 113.57674 | 29 ft | 4 kts | 318° |
| 2026-04-21 10:45 | 22.15814 | 113.57686 | 29 ft | 3 kts | 12° |
| 2026-04-21 10:46 | 22.15811 | 113.57685 | 29 ft | 0 kts | 17° |
| 2026-04-21 10:47 | 22.15814 | 113.57686 | 29 ft | 1 kts | 17° |
| 2026-04-21 10:47 | 22.15825 | 113.57690 | 29 ft | 0 kts | 17° |
| 2026-04-21 10:48 | 22.15826 | 113.57690 | 29 ft | 0 kts | 17° |
| 2026-04-21 10:48 | 22.15828 | 113.57691 | 29 ft | 1 kts | 16° |
| 2026-04-21 10:49 | 22.15829 | 113.57691 | 29 ft | 0 kts | 16° |
| 2026-04-21 10:49 | 22.15835 | 113.57693 | 29 ft | 1 kts | 15° |
| 2026-04-21 10:49 | 22.15840 | 113.57694 | 29 ft | 0 kts | 15° |
| 2026-04-21 10:51 | 22.15841 | 113.57695 | 29 ft | 2 kts | 15° |
| 2026-04-21 10:51 | 22.15870 | 113.57703 | 29 ft | 5 kts | 15° |
| 2026-04-21 10:51 | 22.15909 | 113.57714 | 29 ft | 6 kts | 15° |
| 2026-04-21 10:52 | 22.15953 | 113.57727 | 29 ft | 7 kts | 14° |
| 2026-04-21 10:52 | 22.16003 | 113.57740 | 29 ft | 8 kts | 14° |
| 2026-04-21 10:52 | 22.16058 | 113.57757 | 29 ft | 8 kts | 22° |
| 2026-04-21 10:52 | 22.16098 | 113.57801 | 29 ft | 8 kts | 64° |
| 2026-04-21 10:53 | 22.16119 | 113.57864 | 29 ft | 9 kts | 71° |
| 2026-04-21 10:53 | 22.16140 | 113.57929 | 29 ft | 8 kts | 71° |
| 2026-04-21 10:53 | 22.16156 | 113.57977 | 29 ft | 7 kts | 71° |
| 2026-04-21 10:53 | 22.16173 | 113.58029 | 29 ft | 8 kts | 71° |
| 2026-04-21 10:54 | 22.16192 | 113.58089 | 29 ft | 9 kts | 71° |
| 2026-04-21 10:54 | 22.16213 | 113.58155 | 29 ft | 10 kts | 71° |
| 2026-04-21 10:54 | 22.16237 | 113.58228 | 29 ft | 11 kts | 71° |
| 2026-04-21 10:54 | 22.16262 | 113.58307 | 29 ft | 12 kts | 71° |
| 2026-04-21 10:55 | 22.16289 | 113.58392 | 29 ft | 12 kts | 71° |
| 2026-04-21 10:55 | 22.16314 | 113.58471 | 29 ft | 6 kts | 71° |
| 2026-04-21 10:55 | 22.16315 | 113.58474 | 29 ft | 0 kts | 71° |
| 2026-04-21 10:56 | 22.16317 | 113.58480 | 29 ft | 2 kts | 71° |
| 2026-04-21 10:57 | 22.16324 | 113.58505 | 29 ft | 5 kts | 71° |
| 2026-04-21 10:57 | 22.16337 | 113.58544 | 29 ft | 6 kts | 71° |
| 2026-04-21 10:57 | 22.16348 | 113.58589 | 29 ft | 6 kts | 83° |
| 2026-04-21 10:57 | 22.16332 | 113.58628 | 29 ft | 5 kts | 134° |
| 2026-04-21 10:58 | 22.16310 | 113.58641 | 29 ft | 3 kts | 156° |
| 2026-04-21 10:58 | 22.16224 | 113.58674 | 29 ft | 49 kts | 161° |
| 2026-04-21 10:58 | 22.15635 | 113.58890 | 27 ft | 127 kts | 161° |
| 2026-04-21 10:58 | 22.14601 | 113.59271 | 144 ft | 177 kts | 162° |
| 2026-04-21 10:59 | 22.13421 | 113.59722 | 991 ft | 182 kts | 162° |
| 2026-04-21 10:59 | 22.12235 | 113.60176 | 1934 ft | 182 kts | 162° |
| 2026-04-21 10:59 | 22.11055 | 113.60620 | 2399 ft | 185 kts | 162° |
| 2026-04-21 10:59 | 22.09770 | 113.61099 | 2516 ft | 206 kts | 162° |
| 2026-04-21 11:00 | 22.08335 | 113.61635 | 2654 ft | 232 kts | 162° |
| 2026-04-21 11:00 | 22.06738 | 113.62231 | 2944 ft | 252 kts | 162° |
| 2026-04-21 11:00 | 22.05057 | 113.62861 | 3566 ft | 258 kts | 162° |
| 2026-04-21 11:00 | 22.03338 | 113.63507 | 3929 ft | 263 kts | 162° |
| 2026-04-21 11:01 | 22.01619 | 113.64154 | 3995 ft | 261 kts | 162° |
| 2026-04-21 11:01 | 21.99904 | 113.64799 | 4013 ft | 261 kts | 162° |
| 2026-04-21 11:01 | 21.98195 | 113.65441 | 4011 ft | 261 kts | 162° |
| 2026-04-21 11:02 | 21.94729 | 113.66711 | 5012 ft | 264 kts | 162° |
| 2026-04-21 11:02 | 21.92981 | 113.67341 | 5713 ft | 268 kts | 162° |
| 2026-04-21 11:02 | 21.91210 | 113.67979 | 5940 ft | 268 kts | 163° |
| 2026-04-21 11:02 | 21.89448 | 113.68610 | 6001 ft | 267 kts | 162° |
| 2026-04-21 11:03 | 21.87690 | 113.69244 | 6008 ft | 266 kts | 162° |
| 2026-04-21 11:03 | 21.85929 | 113.69877 | 6011 ft | 267 kts | 162° |
| 2026-04-21 11:03 | 21.84193 | 113.70501 | 6011 ft | 266 kts | 162° |
| 2026-04-21 11:03 | 21.82439 | 113.71130 | 6020 ft | 267 kts | 162° |
| 2026-04-21 11:04 | 21.80662 | 113.71768 | 6609 ft | 270 kts | 162° |
| 2026-04-21 11:04 | 21.78878 | 113.72409 | 7317 ft | 272 kts | 163° |
| 2026-04-21 11:04 | 21.77070 | 113.73060 | 7976 ft | 275 kts | 163° |
| 2026-04-21 11:04 | 21.75244 | 113.73717 | 8607 ft | 278 kts | 163° |
| 2026-04-21 11:05 | 21.73398 | 113.74380 | 9210 ft | 281 kts | 163° |
| 2026-04-21 11:05 | 21.71530 | 113.75051 | 9766 ft | 285 kts | 163° |
| 2026-04-21 11:05 | 21.69612 | 113.75742 | 10093 ft | 299 kts | 163° |
| 2026-04-21 11:05 | 21.67575 | 113.76473 | 10226 ft | 318 kts | 163° |
| 2026-04-21 11:06 | 21.65409 | 113.77251 | 10360 ft | 337 kts | 163° |
| 2026-04-21 11:06 | 21.63182 | 113.78253 | 10483 ft | 358 kts | 152° |
| 2026-04-21 11:06 | 21.61129 | 113.79894 | 10613 ft | 378 kts | 137° |
| 2026-04-21 11:06 | 21.59485 | 113.82164 | 10837 ft | 393 kts | 121° |
| 2026-04-21 11:07 | 21.58448 | 113.84912 | 11262 ft | 403 kts | 105° |
| 2026-04-21 11:07 | 21.58103 | 113.87878 | 11702 ft | 410 kts | 93° |
| 2026-04-21 11:07 | 21.57992 | 113.90950 | 12210 ft | 414 kts | 93° |
| 2026-04-21 11:07 | 21.57884 | 113.94106 | 12724 ft | 419 kts | 93° |
| 2026-04-21 11:08 | 21.57779 | 113.97201 | 13254 ft | 422 kts | 92° |
| 2026-04-21 11:08 | 21.57667 | 114.00366 | 13775 ft | 425 kts | 92° |
| 2026-04-21 11:08 | 21.57550 | 114.03571 | 14302 ft | 429 kts | 93° |
| 2026-04-21 11:08 | 21.57432 | 114.06780 | 14822 ft | 431 kts | 92° |
| 2026-04-21 11:09 | 21.57314 | 114.10005 | 15341 ft | 434 kts | 92° |
| 2026-04-21 11:09 | 21.57197 | 114.13256 | 15848 ft | 437 kts | 92° |
| 2026-04-21 11:09 | 21.57077 | 114.16541 | 16339 ft | 441 kts | 92° |
| 2026-04-21 11:09 | 21.56955 | 114.19838 | 16811 ft | 444 kts | 92° |
| 2026-04-21 11:10 | 21.56832 | 114.23156 | 17263 ft | 446 kts | 92° |
| 2026-04-21 11:10 | 21.56710 | 114.26504 | 17702 ft | 449 kts | 92° |
| 2026-04-21 11:10 | 21.56588 | 114.29866 | 18126 ft | 452 kts | 92° |
| 2026-04-21 11:10 | 21.56464 | 114.33258 | 18536 ft | 455 kts | 92° |
| 2026-04-21 11:11 | 21.56336 | 114.36656 | 18929 ft | 457 kts | 92° |
| 2026-04-21 11:11 | 21.56204 | 114.40081 | 19292 ft | 460 kts | 92° |
| 2026-04-21 11:11 | 21.56068 | 114.43532 | 19659 ft | 463 kts | 92° |
| 2026-04-21 11:11 | 21.55932 | 114.46953 | 20014 ft | 466 kts | 92° |
| 2026-04-21 11:12 | 21.55795 | 114.50436 | 20367 ft | 468 kts | 92° |
| 2026-04-21 11:12 | 21.55658 | 114.53954 | 20695 ft | 472 kts | 92° |
| 2026-04-21 11:12 | 21.55523 | 114.57480 | 21025 ft | 474 kts | 92° |
| 2026-04-21 11:12 | 21.55387 | 114.61025 | 21351 ft | 476 kts | 92° |
| 2026-04-21 11:13 | 21.55247 | 114.64585 | 21656 ft | 478 kts | 92° |
| 2026-04-21 11:13 | 21.55105 | 114.68163 | 21959 ft | 481 kts | 92° |
| 2026-04-21 11:13 | 21.54962 | 114.71764 | 22252 ft | 483 kts | 92° |
| 2026-04-21 11:13 | 21.54815 | 114.75373 | 22570 ft | 485 kts | 92° |
| 2026-04-21 11:14 | 21.54666 | 114.78999 | 22873 ft | 487 kts | 92° |
| 2026-04-21 11:14 | 21.54514 | 114.82639 | 23159 ft | 489 kts | 92° |
| 2026-04-21 11:14 | 21.54361 | 114.86308 | 23431 ft | 492 kts | 92° |
| 2026-04-21 11:14 | 21.54212 | 114.89986 | 23708 ft | 494 kts | 92° |
| 2026-04-21 11:15 | 21.54063 | 114.93684 | 23982 ft | 496 kts | 93° |
| 2026-04-21 11:15 | 21.53911 | 114.97388 | 24245 ft | 498 kts | 93° |
| 2026-04-21 11:15 | 21.53754 | 115.01108 | 24513 ft | 500 kts | 93° |
| 2026-04-21 11:15 | 21.53597 | 115.04847 | 24751 ft | 502 kts | 93° |
| 2026-04-21 11:16 | 21.53442 | 115.08601 | 25007 ft | 504 kts | 93° |
| 2026-04-21 11:16 | 21.53289 | 115.12372 | 25277 ft | 506 kts | 92° |
| 2026-04-21 11:16 | 21.53416 | 115.16154 | 25520 ft | 508 kts | 83° |
| 2026-04-21 11:16 | 21.53885 | 115.19869 | 25761 ft | 510 kts | 82° |
| 2026-04-21 11:17 | 21.54381 | 115.23700 | 26015 ft | 511 kts | 82° |
| 2026-04-21 11:17 | 21.54863 | 115.27435 | 26318 ft | 511 kts | 82° |
| 2026-04-21 11:17 | 21.55347 | 115.31214 | 26658 ft | 511 kts | 82° |
| 2026-04-21 11:17 | 21.55831 | 115.34991 | 26991 ft | 510 kts | 82° |
| 2026-04-21 11:18 | 21.56310 | 115.38762 | 27313 ft | 510 kts | 82° |
| 2026-04-21 11:18 | 21.56784 | 115.42541 | 27653 ft | 510 kts | 82° |
| 2026-04-21 11:18 | 21.57256 | 115.46317 | 27979 ft | 509 kts | 82° |
| 2026-04-21 11:18 | 21.57727 | 115.50078 | 28312 ft | 509 kts | 82° |
| 2026-04-21 11:19 | 21.58198 | 115.53839 | 28636 ft | 508 kts | 82° |
| 2026-04-21 11:19 | 21.58669 | 115.57606 | 28963 ft | 508 kts | 81° |
| 2026-04-21 11:19 | 21.59144 | 115.61362 | 29277 ft | 508 kts | 81° |
| 2026-04-21 11:19 | 21.59621 | 115.65128 | 29615 ft | 508 kts | 81° |
| 2026-04-21 11:20 | 21.60096 | 115.68884 | 29949 ft | 507 kts | 81° |
| 2026-04-21 11:20 | 21.60570 | 115.72642 | 30272 ft | 507 kts | 81° |
| 2026-04-21 11:20 | 21.61035 | 115.76391 | 30583 ft | 507 kts | 81° |
| 2026-04-21 11:20 | 21.61496 | 115.80138 | 30882 ft | 506 kts | 81° |
| 2026-04-21 11:21 | 21.61956 | 115.83886 | 31179 ft | 507 kts | 81° |
| 2026-04-21 11:21 | 21.62416 | 115.87649 | 31464 ft | 507 kts | 81° |
| 2026-04-21 11:21 | 21.62878 | 115.91403 | 31750 ft | 507 kts | 81° |
| 2026-04-21 11:21 | 21.63347 | 115.95158 | 32037 ft | 507 kts | 81° |
| 2026-04-21 11:22 | 21.63815 | 115.98918 | 32317 ft | 507 kts | 81° |
| 2026-04-21 11:22 | 21.64279 | 116.02668 | 32588 ft | 507 kts | 81° |
| 2026-04-21 11:22 | 21.64737 | 116.06423 | 32857 ft | 506 kts | 81° |
| 2026-04-21 11:22 | 21.65193 | 116.10177 | 33115 ft | 507 kts | 82° |
| 2026-04-21 11:23 | 21.65650 | 116.13934 | 33377 ft | 507 kts | 81° |
| 2026-04-21 11:23 | 21.66101 | 116.17636 | 33657 ft | 506 kts | 81° |
| 2026-04-21 11:23 | 21.66555 | 116.21387 | 33927 ft | 506 kts | 82° |
| 2026-04-21 11:23 | 21.67009 | 116.25130 | 34182 ft | 506 kts | 82° |
| 2026-04-21 11:24 | 21.67464 | 116.28878 | 34442 ft | 505 kts | 82° |
| 2026-04-21 11:24 | 21.67917 | 116.32616 | 34706 ft | 504 kts | 81° |
| 2026-04-21 11:24 | 21.68371 | 116.36362 | 34887 ft | 505 kts | 81° |
| 2026-04-21 11:24 | 21.68822 | 116.40110 | 34928 ft | 505 kts | 81° |
| 2026-04-21 11:25 | 21.69720 | 116.47606 | 34923 ft | 505 kts | 81° |
| 2026-04-21 11:25 | 21.70624 | 116.55095 | 34924 ft | 505 kts | 81° |
| 2026-04-21 11:26 | 21.71524 | 116.62602 | 34925 ft | 505 kts | 82° |
| 2026-04-21 11:26 | 21.72412 | 116.70084 | 34929 ft | 505 kts | 82° |
| 2026-04-21 11:27 | 21.73380 | 116.77561 | 34945 ft | 503 kts | 76° |
| 2026-04-21 11:27 | 21.75626 | 116.84648 | 34947 ft | 501 kts | 66° |
| 2026-04-21 11:28 | 21.78175 | 116.91618 | 34950 ft | 501 kts | 66° |
| 2026-04-21 11:28 | 21.80704 | 116.98613 | 34952 ft | 502 kts | 66° |
| 2026-04-21 11:29 | 21.83210 | 117.05575 | 34956 ft | 502 kts | 66° |
| 2026-04-21 11:29 | 21.85740 | 117.12583 | 34958 ft | 502 kts | 67° |
| 2026-04-21 11:30 | 21.88280 | 117.19641 | 34959 ft | 502 kts | 67° |
| 2026-04-21 11:30 | 21.90778 | 117.26605 | 34962 ft | 501 kts | 67° |
| 2026-04-21 11:31 | 21.93300 | 117.33608 | 34961 ft | 501 kts | 67° |
| 2026-04-21 11:31 | 21.95814 | 117.40619 | 34961 ft | 501 kts | 67° |
| 2026-04-21 11:32 | 21.98324 | 117.47618 | 34961 ft | 501 kts | 66° |
| 2026-04-21 11:32 | 22.01546 | 117.54222 | 34963 ft | 497 kts | 56° |
| 2026-04-21 11:33 | 22.05165 | 117.60569 | 34960 ft | 497 kts | 56° |
| 2026-04-21 11:33 | 22.08789 | 117.66927 | 34964 ft | 497 kts | 56° |
| 2026-04-21 11:34 | 22.12395 | 117.73294 | 34966 ft | 497 kts | 56° |
| 2026-04-21 11:34 | 22.15976 | 117.79625 | 34962 ft | 497 kts | 56° |
| 2026-04-21 11:35 | 22.19605 | 117.86037 | 34960 ft | 498 kts | 56° |
| 2026-04-21 11:35 | 22.23209 | 117.92421 | 34961 ft | 498 kts | 56° |
| 2026-04-21 11:36 | 22.26780 | 117.98751 | 34957 ft | 498 kts | 56° |
| 2026-04-21 11:36 | 22.30410 | 118.05126 | 34962 ft | 498 kts | 55° |
| 2026-04-21 11:37 | 22.34123 | 118.11434 | 34961 ft | 497 kts | 54° |
| 2026-04-21 11:37 | 22.37841 | 118.17738 | 34962 ft | 498 kts | 55° |
| 2026-04-21 11:38 | 22.41531 | 118.24076 | 34962 ft | 498 kts | 56° |
| 2026-04-21 11:38 | 22.44542 | 118.29381 | 34959 ft | 498 kts | 56° |
| 2026-04-21 11:39 | 22.48135 | 118.35801 | 34959 ft | 498 kts | 56° |
| 2026-04-21 11:39 | 22.51729 | 118.42210 | 34961 ft | 498 kts | 56° |
| 2026-04-21 11:40 | 22.55339 | 118.48603 | 34959 ft | 498 kts | 56° |
| 2026-04-21 11:40 | 22.58958 | 118.54983 | 34962 ft | 498 kts | 55° |
| 2026-04-21 11:41 | 22.62604 | 118.61357 | 34963 ft | 498 kts | 55° |
| 2026-04-21 11:41 | 22.66224 | 118.67694 | 34963 ft | 498 kts | 55° |
| 2026-04-21 11:42 | 22.69862 | 118.74086 | 34961 ft | 498 kts | 55° |
| 2026-04-21 11:42 | 22.73491 | 118.80485 | 34961 ft | 498 kts | 55° |
| 2026-04-21 11:43 | 22.77108 | 118.86875 | 34958 ft | 498 kts | 55° |
| 2026-04-21 11:43 | 22.80731 | 118.93281 | 34960 ft | 498 kts | 55° |
| 2026-04-21 11:44 | 22.84352 | 118.99680 | 34955 ft | 498 kts | 55° |
| 2026-04-21 11:44 | 22.87973 | 119.06094 | 34957 ft | 498 kts | 55° |
| 2026-04-21 11:45 | 22.91571 | 119.12451 | 34956 ft | 498 kts | 55° |
| 2026-04-21 11:45 | 22.95186 | 119.18861 | 34957 ft | 498 kts | 55° |
| 2026-04-21 11:46 | 22.98792 | 119.25285 | 34960 ft | 498 kts | 55° |
| 2026-04-21 11:46 | 23.02401 | 119.31716 | 34956 ft | 499 kts | 55° |
| 2026-04-21 11:47 | 23.06006 | 119.38141 | 34962 ft | 498 kts | 55° |
| 2026-04-21 11:47 | 23.09609 | 119.44563 | 34965 ft | 498 kts | 55° |
| 2026-04-21 11:48 | 23.13214 | 119.50997 | 34966 ft | 498 kts | 55° |
| 2026-04-21 11:48 | 23.16815 | 119.57440 | 34969 ft | 498 kts | 55° |
| 2026-04-21 11:49 | 23.20390 | 119.63841 | 34968 ft | 498 kts | 55° |
| 2026-04-21 11:49 | 23.23996 | 119.70277 | 34966 ft | 498 kts | 55° |
| 2026-04-21 11:50 | 23.27591 | 119.76706 | 34963 ft | 498 kts | 55° |
| 2026-04-21 11:50 | 23.31174 | 119.83144 | 34963 ft | 498 kts | 55° |
| 2026-04-21 11:51 | 23.34764 | 119.89614 | 34963 ft | 498 kts | 54° |
| 2026-04-21 11:51 | 23.39122 | 119.95346 | 34963 ft | 487 kts | 38° |
| 2026-04-21 11:52 | 23.44066 | 120.00400 | 34963 ft | 488 kts | 38° |
| 2026-04-21 11:52 | 23.48995 | 120.05480 | 34965 ft | 488 kts | 38° |
| 2026-04-21 11:53 | 23.53927 | 120.10580 | 34969 ft | 488 kts | 38° |
| 2026-04-21 11:53 | 23.58846 | 120.15662 | 34968 ft | 487 kts | 38° |
| 2026-04-21 11:54 | 23.63767 | 120.20742 | 34967 ft | 487 kts | 38° |
| 2026-04-21 11:54 | 23.68685 | 120.25820 | 34964 ft | 487 kts | 38° |
| 2026-04-21 11:55 | 23.73600 | 120.30899 | 34964 ft | 486 kts | 38° |
| 2026-04-21 11:55 | 23.78474 | 120.35960 | 34966 ft | 487 kts | 38° |
| 2026-04-21 11:56 | 23.83386 | 120.41059 | 34972 ft | 487 kts | 38° |
| 2026-04-21 11:56 | 23.88297 | 120.46166 | 34977 ft | 487 kts | 38° |
| 2026-04-21 11:57 | 23.93448 | 120.50903 | 34979 ft | 482 kts | 31° |
| 2026-04-21 11:57 | 23.98843 | 120.55243 | 34984 ft | 481 kts | 31° |
| 2026-04-21 11:58 | 24.04236 | 120.59579 | 34983 ft | 481 kts | 31° |
| 2026-04-21 11:58 | 24.09629 | 120.63930 | 34985 ft | 482 kts | 31° |
| 2026-04-21 11:59 | 24.15018 | 120.68296 | 34987 ft | 482 kts | 31° |
| 2026-04-21 11:59 | 24.20404 | 120.72656 | 34986 ft | 481 kts | 31° |
| 2026-04-21 12:00 | 24.25784 | 120.77013 | 34986 ft | 482 kts | 31° |
| 2026-04-21 12:00 | 24.31148 | 120.81362 | 34985 ft | 481 kts | 31° |
| 2026-04-21 12:01 | 24.36532 | 120.85737 | 34986 ft | 481 kts | 31° |
| 2026-04-21 12:01 | 24.41914 | 120.90110 | 34991 ft | 482 kts | 31° |
| 2026-04-21 12:02 | 24.49988 | 120.96680 | 34985 ft | 481 kts | 31° |
| 2026-04-21 12:03 | 24.55361 | 121.01061 | 34985 ft | 481 kts | 31° |
| 2026-04-21 12:03 | 24.60721 | 121.05441 | 34981 ft | 480 kts | 31° |
| 2026-04-21 12:04 | 24.66084 | 121.09822 | 34985 ft | 480 kts | 31° |
| 2026-04-21 12:04 | 24.71444 | 121.14193 | 34997 ft | 480 kts | 31° |
| 2026-04-21 12:05 | 24.76764 | 121.18551 | 34979 ft | 479 kts | 31° |
| 2026-04-21 12:05 | 24.82109 | 121.22938 | 34972 ft | 480 kts | 31° |
| 2026-04-21 12:06 | 24.87456 | 121.27326 | 34971 ft | 479 kts | 31° |
| 2026-04-21 12:06 | 24.92798 | 121.31711 | 34973 ft | 479 kts | 31° |
| 2026-04-21 12:07 | 24.98129 | 121.36103 | 34972 ft | 479 kts | 31° |
| 2026-04-21 12:07 | 25.03471 | 121.40504 | 34967 ft | 478 kts | 31° |
| 2026-04-21 12:08 | 25.08804 | 121.44897 | 34969 ft | 478 kts | 31° |
| 2026-04-21 12:08 | 25.14137 | 121.49289 | 34965 ft | 478 kts | 31° |
| 2026-04-21 12:09 | 25.19193 | 121.54088 | 34962 ft | 486 kts | 44° |
| 2026-04-21 12:09 | 25.23653 | 121.59715 | 34974 ft | 486 kts | 44° |
| 2026-04-21 12:10 | 25.28104 | 121.65333 | 34970 ft | 486 kts | 44° |
| 2026-04-21 12:10 | 25.32551 | 121.70965 | 34970 ft | 486 kts | 44° |
| 2026-04-21 12:11 | 25.37001 | 121.76603 | 34971 ft | 486 kts | 44° |
| 2026-04-21 12:11 | 25.41446 | 121.82230 | 34972 ft | 485 kts | 43° |
| 2026-04-21 12:12 | 25.45885 | 121.87847 | 34972 ft | 485 kts | 44° |
| 2026-04-21 12:12 | 25.50323 | 121.93474 | 34977 ft | 485 kts | 44° |
| 2026-04-21 12:13 | 25.54754 | 121.99112 | 34983 ft | 484 kts | 44° |
| 2026-04-21 12:13 | 25.59172 | 122.04743 | 34983 ft | 484 kts | 44° |
| 2026-04-21 12:14 | 25.64000 | 122.09726 | 34979 ft | 472 kts | 30° |
| 2026-04-21 12:14 | 25.69382 | 122.13896 | 34979 ft | 472 kts | 30° |
| 2026-04-21 12:15 | 25.74765 | 122.18059 | 34979 ft | 472 kts | 29° |
| 2026-04-21 12:15 | 25.80166 | 122.22260 | 34959 ft | 476 kts | 29° |
| 2026-04-21 12:16 | 25.85613 | 122.26509 | 34960 ft | 479 kts | 29° |
| 2026-04-21 12:16 | 25.91079 | 122.30779 | 34965 ft | 481 kts | 29° |
| 2026-04-21 12:17 | 25.96566 | 122.35072 | 34972 ft | 482 kts | 29° |
| 2026-04-21 12:17 | 26.02054 | 122.39370 | 34976 ft | 483 kts | 29° |
| 2026-04-21 12:18 | 26.07559 | 122.43684 | 34985 ft | 484 kts | 29° |
| 2026-04-21 12:18 | 26.13062 | 122.47989 | 35003 ft | 484 kts | 29° |
| 2026-04-21 12:19 | 26.18530 | 122.52283 | 35006 ft | 484 kts | 29° |
| 2026-04-21 12:19 | 26.24024 | 122.56617 | 35007 ft | 484 kts | 29° |
| 2026-04-21 12:20 | 26.29526 | 122.60963 | 35006 ft | 484 kts | 30° |
| 2026-04-21 12:20 | 26.35027 | 122.65311 | 35013 ft | 483 kts | 29° |
| 2026-04-21 12:21 | 26.40520 | 122.69647 | 35015 ft | 483 kts | 29° |
| 2026-04-21 12:21 | 26.46004 | 122.73992 | 35016 ft | 483 kts | 30° |
| 2026-04-21 12:22 | 26.51448 | 122.78307 | 35022 ft | 483 kts | 30° |
| 2026-04-21 12:22 | 26.56929 | 122.82653 | 35013 ft | 483 kts | 30° |
| 2026-04-21 12:23 | 26.62409 | 122.86987 | 35015 ft | 482 kts | 30° |
| 2026-04-21 12:23 | 26.67890 | 122.91320 | 35012 ft | 482 kts | 30° |
| 2026-04-21 12:24 | 26.73363 | 122.95662 | 35024 ft | 483 kts | 30° |
| 2026-04-21 12:24 | 26.78829 | 123.00016 | 35023 ft | 482 kts | 30° |
| 2026-04-21 12:25 | 26.84303 | 123.04385 | 35026 ft | 482 kts | 30° |
| 2026-04-21 12:25 | 26.89725 | 123.08723 | 35025 ft | 482 kts | 30° |
| 2026-04-21 12:26 | 26.95183 | 123.13082 | 35022 ft | 482 kts | 30° |
| 2026-04-21 12:26 | 27.00647 | 123.17448 | 35022 ft | 482 kts | 30° |
| 2026-04-21 12:27 | 27.06113 | 123.21829 | 35021 ft | 482 kts | 30° |
| 2026-04-21 12:27 | 27.11570 | 123.26211 | 35030 ft | 482 kts | 30° |
| 2026-04-21 12:28 | 27.16099 | 123.29851 | 35030 ft | 482 kts | 30° |
| 2026-04-21 12:28 | 27.21556 | 123.34241 | 35034 ft | 482 kts | 30° |
| 2026-04-21 12:29 | 27.27900 | 123.39355 | 35036 ft | 483 kts | 30° |
| 2026-04-21 12:29 | 27.32474 | 123.43040 | 35037 ft | 483 kts | 30° |
| 2026-04-21 12:30 | 27.37934 | 123.47445 | 35035 ft | 483 kts | 30° |
| 2026-04-21 12:30 | 27.43393 | 123.51862 | 35037 ft | 484 kts | 30° |
| 2026-04-21 12:31 | 27.49746 | 123.57009 | 35038 ft | 484 kts | 31° |
| 2026-04-21 12:31 | 27.54294 | 123.60701 | 35038 ft | 485 kts | 30° |
| 2026-04-21 12:32 | 27.59771 | 123.65140 | 35038 ft | 485 kts | 30° |
| 2026-04-21 12:32 | 27.65215 | 123.69649 | 35040 ft | 486 kts | 32° |
| 2026-04-21 12:33 | 27.70533 | 123.74391 | 35040 ft | 488 kts | 34° |
| 2026-04-21 12:33 | 27.75814 | 123.79194 | 35039 ft | 488 kts | 34° |
| 2026-04-21 12:34 | 27.81127 | 123.83956 | 35033 ft | 487 kts | 33° |
| 2026-04-21 12:34 | 27.86469 | 123.88681 | 35033 ft | 488 kts | 33° |
| 2026-04-21 12:35 | 27.91818 | 123.93418 | 35038 ft | 488 kts | 33° |
| 2026-04-21 12:35 | 27.97155 | 123.98172 | 35038 ft | 488 kts | 33° |
| 2026-04-21 12:36 | 28.02488 | 124.02926 | 35041 ft | 488 kts | 33° |
| 2026-04-21 12:36 | 28.07811 | 124.07688 | 35039 ft | 488 kts | 33° |
| 2026-04-21 12:37 | 28.13141 | 124.12452 | 35038 ft | 488 kts | 33° |
| 2026-04-21 12:37 | 28.18443 | 124.17193 | 35037 ft | 488 kts | 33° |
| 2026-04-21 12:38 | 28.23768 | 124.21976 | 35040 ft | 489 kts | 33° |
| 2026-04-21 12:38 | 28.29085 | 124.26753 | 35045 ft | 488 kts | 33° |
| 2026-04-21 12:39 | 28.34422 | 124.31560 | 35047 ft | 488 kts | 33° |
| 2026-04-21 12:39 | 28.39677 | 124.36295 | 35050 ft | 489 kts | 33° |
| 2026-04-21 12:40 | 28.45018 | 124.41105 | 35053 ft | 489 kts | 33° |
| 2026-04-21 12:40 | 28.50354 | 124.45918 | 35055 ft | 489 kts | 33° |
| 2026-04-21 12:41 | 28.55679 | 124.50732 | 35062 ft | 489 kts | 33° |
| 2026-04-21 12:41 | 28.60992 | 124.55552 | 35074 ft | 489 kts | 33° |
| 2026-04-21 12:42 | 28.66283 | 124.60346 | 35082 ft | 489 kts | 33° |
| 2026-04-21 12:42 | 28.71600 | 124.65162 | 35086 ft | 489 kts | 33° |
| 2026-04-21 12:43 | 28.77024 | 124.69738 | 35082 ft | 482 kts | 24° |
| 2026-04-21 12:43 | 28.83118 | 124.72666 | 35073 ft | 471 kts | 13° |
| 2026-04-21 12:44 | 28.89327 | 124.75114 | 35071 ft | 472 kts | 13° |
| 2026-04-21 12:44 | 28.95534 | 124.77585 | 35072 ft | 473 kts | 13° |
| 2026-04-21 12:45 | 29.01753 | 124.80070 | 35069 ft | 473 kts | 13° |
| 2026-04-21 12:45 | 29.07972 | 124.82552 | 35080 ft | 473 kts | 13° |
| 2026-04-21 12:46 | 29.14188 | 124.85035 | 35082 ft | 474 kts | 13° |
| 2026-04-21 12:46 | 29.20412 | 124.87528 | 35073 ft | 474 kts | 13° |
| 2026-04-21 12:47 | 29.26635 | 124.90018 | 35078 ft | 474 kts | 13° |
| 2026-04-21 12:47 | 29.32865 | 124.92519 | 35081 ft | 474 kts | 13° |
| 2026-04-21 12:48 | 29.39096 | 124.95025 | 35081 ft | 474 kts | 13° |
| 2026-04-21 12:48 | 29.45334 | 124.97523 | 35076 ft | 475 kts | 13° |
| 2026-04-21 12:49 | 29.51562 | 125.00033 | 35076 ft | 475 kts | 13° |
| 2026-04-21 12:49 | 29.57756 | 125.02534 | 35078 ft | 475 kts | 13° |
| 2026-04-21 12:50 | 29.63996 | 125.05058 | 35081 ft | 475 kts | 13° |
| 2026-04-21 12:50 | 29.70239 | 125.07584 | 35089 ft | 475 kts | 14° |
| 2026-04-21 12:51 | 29.76478 | 125.10111 | 35082 ft | 475 kts | 14° |
| 2026-04-21 12:51 | 29.82724 | 125.12645 | 35093 ft | 475 kts | 14° |
| 2026-04-21 12:52 | 29.88962 | 125.15182 | 35096 ft | 475 kts | 14° |
| 2026-04-21 12:52 | 29.95205 | 125.17725 | 35090 ft | 475 kts | 14° |
| 2026-04-21 12:53 | 30.01453 | 125.20261 | 35081 ft | 476 kts | 14° |
| 2026-04-21 12:53 | 30.07659 | 125.22792 | 35077 ft | 477 kts | 14° |
| 2026-04-21 12:54 | 30.13913 | 125.25351 | 35083 ft | 477 kts | 14° |
| 2026-04-21 12:54 | 30.20176 | 125.27915 | 35078 ft | 477 kts | 14° |
| 2026-04-21 12:55 | 30.26430 | 125.30493 | 35083 ft | 478 kts | 14° |
| 2026-04-21 12:55 | 30.32694 | 125.33074 | 35087 ft | 477 kts | 14° |
| 2026-04-21 12:56 | 30.38960 | 125.35651 | 35086 ft | 478 kts | 14° |
| 2026-04-21 12:56 | 30.45225 | 125.38230 | 35085 ft | 478 kts | 14° |
| 2026-04-21 12:57 | 30.51493 | 125.40812 | 35088 ft | 478 kts | 14° |
| 2026-04-21 12:57 | 30.57758 | 125.43401 | 35086 ft | 478 kts | 14° |
| 2026-04-21 12:58 | 30.64026 | 125.45999 | 35090 ft | 478 kts | 14° |
| 2026-04-21 12:58 | 30.70308 | 125.48593 | 35088 ft | 479 kts | 14° |
| 2026-04-21 12:59 | 30.76594 | 125.51207 | 35094 ft | 480 kts | 14° |
| 2026-04-21 12:59 | 30.82888 | 125.53830 | 35097 ft | 480 kts | 14° |
| 2026-04-21 13:00 | 30.89136 | 125.56422 | 35082 ft | 480 kts | 14° |
| 2026-04-21 13:00 | 30.95427 | 125.59043 | 35079 ft | 481 kts | 15° |
| 2026-04-21 13:01 | 31.01744 | 125.61678 | 35066 ft | 483 kts | 15° |
| 2026-04-21 13:01 | 31.08077 | 125.64325 | 35069 ft | 484 kts | 15° |
| 2026-04-21 13:02 | 31.14428 | 125.66989 | 35071 ft | 485 kts | 15° |
| 2026-04-21 13:02 | 31.23971 | 125.70994 | 35082 ft | 487 kts | 15° |
| 2026-04-21 13:03 | 31.30345 | 125.73664 | 35094 ft | 487 kts | 15° |
| 2026-04-21 13:03 | 31.36733 | 125.76340 | 35094 ft | 487 kts | 15° |
| 2026-04-21 13:04 | 31.43075 | 125.79013 | 35101 ft | 487 kts | 15° |
| 2026-04-21 13:04 | 31.49450 | 125.81710 | 35101 ft | 487 kts | 15° |
| 2026-04-21 13:05 | 31.55819 | 125.84410 | 35099 ft | 486 kts | 15° |
| 2026-04-21 13:05 | 31.62198 | 125.87106 | 35100 ft | 486 kts | 14° |
| 2026-04-21 13:06 | 31.68564 | 125.89776 | 35101 ft | 486 kts | 14° |
| 2026-04-21 13:06 | 31.74948 | 125.92449 | 35106 ft | 487 kts | 14° |
| 2026-04-21 13:07 | 31.81327 | 125.95129 | 35107 ft | 487 kts | 14° |
| 2026-04-21 13:07 | 31.87706 | 125.97825 | 35112 ft | 487 kts | 15° |
| 2026-04-21 13:08 | 31.94047 | 126.00523 | 35120 ft | 488 kts | 15° |
| 2026-04-21 13:08 | 32.00439 | 126.03228 | 35129 ft | 488 kts | 14° |
| 2026-04-21 13:09 | 32.06842 | 126.05932 | 35136 ft | 489 kts | 15° |
| 2026-04-21 13:09 | 32.13235 | 126.08647 | 35136 ft | 489 kts | 15° |
| 2026-04-21 13:10 | 32.19631 | 126.11374 | 35140 ft | 489 kts | 15° |
| 2026-04-21 13:10 | 32.26032 | 126.14094 | 35135 ft | 488 kts | 14° |
| 2026-04-21 13:11 | 32.32422 | 126.16808 | 35146 ft | 488 kts | 14° |
| 2026-04-21 13:11 | 32.38816 | 126.19535 | 35148 ft | 488 kts | 14° |
| 2026-04-21 13:12 | 32.45205 | 126.22263 | 35147 ft | 487 kts | 14° |
| 2026-04-21 13:12 | 32.51585 | 126.24988 | 35147 ft | 487 kts | 14° |
| 2026-04-21 13:13 | 32.57965 | 126.27718 | 35146 ft | 487 kts | 14° |
| 2026-04-21 13:13 | 32.64344 | 126.30449 | 35146 ft | 487 kts | 14° |
| 2026-04-21 13:14 | 32.70678 | 126.33164 | 35147 ft | 487 kts | 14° |
| 2026-04-21 13:14 | 32.77043 | 126.35907 | 35147 ft | 487 kts | 14° |
| 2026-04-21 13:15 | 32.83414 | 126.38657 | 35149 ft | 486 kts | 13° |
| 2026-04-21 13:15 | 32.89773 | 126.41400 | 35147 ft | 486 kts | 13° |
| 2026-04-21 13:16 | 32.96127 | 126.44150 | 35150 ft | 486 kts | 13° |
| 2026-04-21 13:16 | 33.01406 | 126.46438 | 35153 ft | 486 kts | 13° |
| 2026-04-21 13:17 | 33.07758 | 126.49177 | 35154 ft | 486 kts | 13° |
| 2026-04-21 13:17 | 33.15137 | 126.52349 | 35155 ft | 485 kts | 13° |
| 2026-04-21 13:18 | 33.20467 | 126.54640 | 35157 ft | 485 kts | 12° |
| 2026-04-21 13:18 | 33.26807 | 126.57373 | 35160 ft | 485 kts | 12° |
| 2026-04-21 13:19 | 33.33154 | 126.60113 | 35157 ft | 484 kts | 12° |
| 2026-04-21 13:19 | 33.39490 | 126.62864 | 35156 ft | 484 kts | 12° |
| 2026-04-21 13:20 | 33.45784 | 126.65597 | 35151 ft | 484 kts | 12° |
| 2026-04-21 13:20 | 33.52108 | 126.68360 | 35153 ft | 484 kts | 12° |
| 2026-04-21 13:21 | 33.58524 | 126.70163 | 35148 ft | 465 kts | 356° |
| 2026-04-21 13:21 | 33.64977 | 126.70822 | 35149 ft | 465 kts | 356° |
| 2026-04-21 13:22 | 33.71430 | 126.71487 | 35150 ft | 465 kts | 356° |
| 2026-04-21 13:22 | 33.77885 | 126.72168 | 35150 ft | 465 kts | 356° |
| 2026-04-21 13:23 | 33.84332 | 126.72853 | 35149 ft | 465 kts | 356° |
| 2026-04-21 13:23 | 33.90774 | 126.73534 | 35147 ft | 464 kts | 356° |
| 2026-04-21 13:24 | 33.97211 | 126.74211 | 35142 ft | 464 kts | 356° |
| 2026-04-21 13:24 | 34.03603 | 126.74881 | 35148 ft | 464 kts | 356° |
| 2026-04-21 13:25 | 34.10042 | 126.75553 | 35153 ft | 463 kts | 356° |
| 2026-04-21 13:25 | 34.16462 | 126.76226 | 35155 ft | 463 kts | 356° |
| 2026-04-21 13:26 | 34.22875 | 126.76902 | 35150 ft | 462 kts | 356° |
| 2026-04-21 13:26 | 34.29284 | 126.77574 | 35154 ft | 462 kts | 356° |
| 2026-04-21 13:27 | 34.35700 | 126.78247 | 35154 ft | 462 kts | 356° |
| 2026-04-21 13:27 | 34.42106 | 126.78927 | 35154 ft | 462 kts | 355° |
| 2026-04-21 13:28 | 34.48511 | 126.79615 | 35148 ft | 462 kts | 355° |
| 2026-04-21 13:28 | 34.54889 | 126.80302 | 35140 ft | 463 kts | 355° |
| 2026-04-21 13:29 | 34.61305 | 126.80981 | 35140 ft | 463 kts | 355° |
| 2026-04-21 13:29 | 34.67726 | 126.81666 | 35149 ft | 463 kts | 355° |
| 2026-04-21 13:30 | 34.74155 | 126.82367 | 35155 ft | 463 kts | 355° |
| 2026-04-21 13:30 | 34.80586 | 126.83060 | 35157 ft | 463 kts | 355° |
| 2026-04-21 13:31 | 34.87002 | 126.83744 | 35156 ft | 463 kts | 355° |
| 2026-04-21 13:31 | 34.93387 | 126.84432 | 35156 ft | 463 kts | 355° |
| 2026-04-21 13:32 | 34.98759 | 126.85017 | 35155 ft | 463 kts | 355° |
| 2026-04-21 13:33 | 35.12947 | 126.86545 | 35155 ft | 463 kts | 355° |
| 2026-04-21 13:33 | 35.19341 | 126.87231 | 35160 ft | 462 kts | 355° |
| 2026-04-21 13:34 | 35.25744 | 126.87925 | 35161 ft | 462 kts | 355° |
| 2026-04-21 13:34 | 35.32159 | 126.88628 | 35160 ft | 462 kts | 355° |
| 2026-04-21 13:35 | 35.38569 | 126.89329 | 35164 ft | 462 kts | 355° |
| 2026-04-21 13:35 | 35.44925 | 126.90022 | 35150 ft | 461 kts | 355° |
| 2026-04-21 13:36 | 35.51315 | 126.90719 | 35151 ft | 461 kts | 354° |
| 2026-04-21 13:36 | 35.57712 | 126.91418 | 35157 ft | 461 kts | 354° |
| 2026-04-21 13:37 | 35.64097 | 126.92110 | 35161 ft | 461 kts | 354° |
| 2026-04-21 13:37 | 35.70497 | 126.92814 | 35164 ft | 461 kts | 354° |
| 2026-04-21 13:38 | 35.76884 | 126.93517 | 35171 ft | 461 kts | 354° |
| 2026-04-21 13:38 | 35.83275 | 126.94221 | 35175 ft | 461 kts | 354° |
| 2026-04-21 13:39 | 35.89663 | 126.94926 | 35176 ft | 461 kts | 354° |
| 2026-04-21 13:39 | 35.96056 | 126.95632 | 35178 ft | 461 kts | 354° |
| 2026-04-21 13:40 | 36.02458 | 126.96337 | 35172 ft | 462 kts | 354° |
| 2026-04-21 13:40 | 36.08858 | 126.97046 | 35180 ft | 461 kts | 354° |
| 2026-04-21 13:41 | 36.15243 | 126.97765 | 35179 ft | 460 kts | 353° |
| 2026-04-21 13:41 | 36.21614 | 126.98474 | 35174 ft | 459 kts | 353° |
| 2026-04-21 13:42 | 36.27978 | 126.99183 | 35174 ft | 459 kts | 353° |
| 2026-04-21 13:42 | 36.34341 | 126.99894 | 35170 ft | 459 kts | 353° |
| 2026-04-21 13:43 | 36.40649 | 127.00310 | 34899 ft | 446 kts | 346° |
| 2026-04-21 13:43 | 36.43719 | 127.00186 | 34652 ft | 447 kts | 346° |
| 2026-04-21 13:43 | 36.46874 | 127.00058 | 34399 ft | 449 kts | 346° |
| 2026-04-21 13:44 | 36.50004 | 126.99938 | 34150 ft | 450 kts | 346° |
| 2026-04-21 13:44 | 36.53112 | 126.99823 | 33905 ft | 454 kts | 346° |
| 2026-04-21 13:44 | 36.56265 | 126.99705 | 33654 ft | 455 kts | 347° |
| 2026-04-21 13:44 | 36.59441 | 126.99590 | 33398 ft | 455 kts | 347° |
| 2026-04-21 13:45 | 36.62607 | 126.99478 | 33162 ft | 456 kts | 347° |
| 2026-04-21 13:45 | 36.65780 | 126.99368 | 32902 ft | 456 kts | 347° |
| 2026-04-21 13:45 | 36.68933 | 126.99169 | 32342 ft | 448 kts | 341° |
| 2026-04-21 13:45 | 36.71846 | 126.98217 | 31157 ft | 418 kts | 325° |
| 2026-04-21 13:46 | 36.74440 | 126.96724 | 30061 ft | 406 kts | 324° |
| 2026-04-21 13:46 | 36.76973 | 126.95248 | 28989 ft | 400 kts | 324° |
| 2026-04-21 13:46 | 36.79507 | 126.93764 | 27923 ft | 405 kts | 325° |
| 2026-04-21 13:46 | 36.82069 | 126.92265 | 26839 ft | 404 kts | 325° |
| 2026-04-21 13:47 | 36.84580 | 126.90817 | 26083 ft | 387 kts | 326° |
| 2026-04-21 13:47 | 36.86938 | 126.89489 | 25876 ft | 358 kts | 326° |
| 2026-04-21 13:47 | 36.89146 | 126.88250 | 25339 ft | 341 kts | 325° |
| 2026-04-21 13:47 | 36.91279 | 126.87034 | 24558 ft | 332 kts | 325° |
| 2026-04-21 13:48 | 36.93358 | 126.85831 | 23715 ft | 326 kts | 325° |
| 2026-04-21 13:48 | 36.95397 | 126.84641 | 22838 ft | 321 kts | 326° |
| 2026-04-21 13:48 | 36.97382 | 126.83484 | 21960 ft | 317 kts | 326° |
| 2026-04-21 13:48 | 36.99396 | 126.82314 | 21144 ft | 311 kts | 326° |
| 2026-04-21 13:49 | 37.01282 | 126.81225 | 20602 ft | 297 kts | 326° |
| 2026-04-21 13:49 | 37.03120 | 126.80171 | 19977 ft | 282 kts | 327° |
| 2026-04-21 13:49 | 37.04851 | 126.79182 | 19444 ft | 269 kts | 326° |
| 2026-04-21 13:49 | 37.06537 | 126.78199 | 18718 ft | 264 kts | 327° |
| 2026-04-21 13:50 | 37.08187 | 126.77232 | 18015 ft | 259 kts | 327° |
| 2026-04-21 13:50 | 37.09801 | 126.76284 | 17334 ft | 255 kts | 327° |
| 2026-04-21 13:50 | 37.11394 | 126.75351 | 16674 ft | 252 kts | 327° |
| 2026-04-21 13:50 | 37.12979 | 126.74428 | 16001 ft | 251 kts | 328° |
| 2026-04-21 13:51 | 37.14531 | 126.73522 | 15337 ft | 246 kts | 328° |
| 2026-04-21 13:51 | 37.15523 | 126.72826 | 14681 ft | 246 kts | 317° |
| 2026-04-21 13:51 | 37.16853 | 126.71439 | 13667 ft | 252 kts | 316° |
| 2026-04-21 13:51 | 37.18258 | 126.70107 | 12733 ft | 251 kts | 320° |
| 2026-04-21 13:52 | 37.19683 | 126.68850 | 11609 ft | 250 kts | 320° |
| 2026-04-21 13:52 | 37.20864 | 126.67317 | 10564 ft | 241 kts | 301° |
| 2026-04-21 13:52 | 37.21650 | 126.65479 | 9489 ft | 238 kts | 284° |
| 2026-04-21 13:52 | 37.21619 | 126.63441 | 8555 ft | 235 kts | 252° |
| 2026-04-21 13:53 | 37.20715 | 126.61850 | 8050 ft | 222 kts | 221° |
| 2026-04-21 13:53 | 37.19288 | 126.61163 | 7378 ft | 226 kts | 188° |
| 2026-04-21 13:53 | 37.17736 | 126.61511 | 6652 ft | 233 kts | 158° |
| 2026-04-21 13:53 | 37.16533 | 126.62865 | 5913 ft | 239 kts | 123° |
| 2026-04-21 13:54 | 37.16073 | 126.64847 | 5186 ft | 239 kts | 89° |
| 2026-04-21 13:54 | 37.16511 | 126.66812 | 4452 ft | 234 kts | 54° |
| 2026-04-21 13:54 | 37.17642 | 126.68098 | 4132 ft | 210 kts | 22° |
| 2026-04-21 13:54 | 37.18997 | 126.68540 | 3900 ft | 196 kts | 356° |
| 2026-04-21 13:55 | 37.20293 | 126.68228 | 3651 ft | 187 kts | 330° |
| 2026-04-21 13:55 | 37.21376 | 126.67367 | 3425 ft | 183 kts | 319° |
| 2026-04-21 13:55 | 37.22420 | 126.66446 | 3432 ft | 184 kts | 319° |
| 2026-04-21 13:55 | 37.23469 | 126.65521 | 3430 ft | 185 kts | 319° |
| 2026-04-21 13:56 | 37.24503 | 126.64612 | 3421 ft | 178 kts | 319° |
| 2026-04-21 13:56 | 37.25529 | 126.63704 | 3422 ft | 182 kts | 319° |
| 2026-04-21 13:56 | 37.26565 | 126.62789 | 3424 ft | 183 kts | 319° |
| 2026-04-21 13:56 | 37.27608 | 126.61868 | 3428 ft | 183 kts | 319° |
| 2026-04-21 13:57 | 37.28651 | 126.60948 | 3426 ft | 183 kts | 319° |
| 2026-04-21 13:57 | 37.29688 | 126.60031 | 3425 ft | 182 kts | 319° |
| 2026-04-21 13:57 | 37.30719 | 126.59120 | 3404 ft | 183 kts | 319° |
| 2026-04-21 13:57 | 37.31746 | 126.58215 | 3237 ft | 170 kts | 319° |
| 2026-04-21 13:58 | 37.32636 | 126.57430 | 3065 ft | 150 kts | 318° |
| 2026-04-21 13:58 | 37.33463 | 126.56698 | 2870 ft | 142 kts | 317° |
| 2026-04-21 13:58 | 37.34265 | 126.55985 | 2684 ft | 141 kts | 318° |
| 2026-04-21 13:58 | 37.35067 | 126.55273 | 2500 ft | 141 kts | 319° |
| 2026-04-21 13:59 | 37.35873 | 126.54559 | 2319 ft | 142 kts | 320° |
| 2026-04-21 13:59 | 37.36682 | 126.53841 | 2127 ft | 143 kts | 320° |
| 2026-04-21 13:59 | 37.37494 | 126.53122 | 1941 ft | 143 kts | 321° |
| 2026-04-21 13:59 | 37.38306 | 126.52401 | 1745 ft | 143 kts | 321° |
| 2026-04-21 14:00 | 37.39118 | 126.51680 | 1563 ft | 143 kts | 322° |
| 2026-04-21 14:00 | 37.39930 | 126.50960 | 1369 ft | 142 kts | 323° |
| 2026-04-21 14:00 | 37.40738 | 126.50244 | 1177 ft | 142 kts | 323° |
| 2026-04-21 14:00 | 37.41543 | 126.49530 | 993 ft | 141 kts | 323° |
| 2026-04-21 14:01 | 37.42346 | 126.48818 | 807 ft | 141 kts | 324° |
| 2026-04-21 14:01 | 37.43146 | 126.48108 | 623 ft | 140 kts | 324° |
| 2026-04-21 14:01 | 37.43940 | 126.47403 | 432 ft | 139 kts | 324° |
| 2026-04-21 14:01 | 37.44731 | 126.46701 | 247 ft | 139 kts | 324° |
| 2026-04-21 14:02 | 37.45518 | 126.46002 | 61 ft | 138 kts | 324° |
| 2026-04-21 14:02 | 37.46221 | 126.45375 | 31 ft | 90 kts | 324° |
| 2026-04-21 14:02 | 37.46487 | 126.45140 | 33 ft | 3 kts | 325° |
| 2026-04-21 14:03 | 37.46649 | 126.44995 | 30 ft | 21 kts | 324° |
| 2026-04-21 14:03 | 37.46753 | 126.44894 | 33 ft | 18 kts | 309° |
| 2026-04-21 14:03 | 37.46734 | 126.44752 | 31 ft | 16 kts | 234° |
| 2026-04-21 14:03 | 37.46644 | 126.44677 | 33 ft | 13 kts | 218° |
| 2026-04-21 14:04 | 37.46561 | 126.44658 | 33 ft | 14 kts | 152° |
| 2026-04-21 14:04 | 37.46476 | 126.44734 | 32 ft | 16 kts | 146° |
| 2026-04-21 14:04 | 37.46380 | 126.44816 | 33 ft | 18 kts | 146° |
| 2026-04-21 14:04 | 37.46274 | 126.44909 | 33 ft | 19 kts | 144° |
| 2026-04-21 14:05 | 37.46159 | 126.45013 | 31 ft | 21 kts | 144° |
| 2026-04-21 14:05 | 37.46034 | 126.45126 | 33 ft | 23 kts | 145° |
| 2026-04-21 14:05 | 37.45900 | 126.45244 | 33 ft | 24 kts | 144° |
| 2026-04-21 14:05 | 37.45821 | 126.45312 | 33 ft | 10 kts | 157° |
| 2026-04-21 14:06 | 37.45753 | 126.45283 | 31 ft | 12 kts | 232° |
| 2026-04-21 14:06 | 37.45697 | 126.45208 | 33 ft | 12 kts | 200° |
| 2026-04-21 14:06 | 37.45618 | 126.45242 | 33 ft | 13 kts | 149° |
| 2026-04-21 14:06 | 37.45527 | 126.45282 | 33 ft | 15 kts | 163° |
| 2026-04-21 14:07 | 37.45429 | 126.45318 | 33 ft | 12 kts | 163° |
| 2026-04-21 14:07 | 37.45389 | 126.45333 | 33 ft | 5 kts | 163° |
| 2026-04-21 14:07 | 37.45350 | 126.45343 | 33 ft | 4 kts | 189° |
| 2026-04-21 14:07 | 37.45338 | 126.45326 | 33 ft | 1 kts | 251° |
| 2026-04-21 14:08 | 37.45336 | 126.45312 | 33 ft | 3 kts | 261° |
| 2026-04-21 14:08 | 37.45332 | 126.45285 | 33 ft | 2 kts | 255° |
| 2026-04-21 14:08 | 37.45328 | 126.45268 | 33 ft | 2 kts | 254° |
| 2026-04-21 14:08 | 37.45323 | 126.45247 | 31 ft | 2 kts | 253° |
| 2026-04-21 14:09 | 37.45321 | 126.45238 | 33 ft | 1 kts | 253° |
| 2026-04-21 14:09 | 37.45319 | 126.45232 | 33 ft | 0 kts | 253° |
| 2026-04-21 14:09 | 37.45319 | 126.45231 | 33 ft | 0 kts | 253° |
| 2026-04-21 14:09 | 37.45319 | 126.45230 | 33 ft | 0 kts | 253° |